Time;durP1;ratioP1;P1;durP2;ratioP2;P2;SDS_P1;SDS_P2;PMS_P1;PMS_P2;Temp;Humidity;BMP_temperature;BMP_pressure;BME280_temperature;BME280_humidity;BME280_pressure;Samples;Min_cycle;Max_cycle;Signal;HPM_P1;HPM_P2
2022/11/03 00:01:47;;;;;;;9.17;3.73;;;;;;;5.16;80.36;101354.64;1717467;83;22116;-73
2022/11/03 00:04:17;;;;;;;9.88;4.17;;;;;;;5.12;80.19;101355.91;1717637;83;21442;-73
2022/11/03 00:06:48;;;;;;;12.40;5.27;;;;;;;5.05;80.13;101354.19;1727147;82;21043;-73
2022/11/03 00:09:18;;;;;;;16.67;6.80;;;;;;;5.02;80.16;101360.69;1747435;82;21015;-73
2022/11/03 00:11:47;;;;;;;13.62;6.53;;;;;;;4.98;80.32;101359.37;1735017;82;21488;-80
2022/11/03 00:14:14;;;;;;;14.20;6.80;;;;;;;4.98;80.77;101364.12;1734658;82;20992;-73
2022/11/03 00:16:42;;;;;;;13.20;6.53;;;;;;;4.99;80.72;101362.39;1734957;82;20934;-73
2022/11/03 00:19:12;;;;;;;11.07;6.47;;;;;;;4.95;80.92;101364.56;1734648;82;21536;-73
2022/11/03 00:21:39;;;;;;;11.75;6.67;;;;;;;4.93;80.51;101358.05;1735102;82;21034;-73
2022/11/03 00:24:07;;;;;;;15.03;6.77;;;;;;;4.91;80.76;101363.70;1731216;82;21129;-73
2022/11/03 00:26:35;;;;;;;11.00;6.63;;;;;;;4.86;80.64;101357.62;1722361;83;20996;-73
2022/11/03 00:29:12;;;;;;;13.00;7.20;;;;;;;4.82;80.67;101356.77;1719562;83;20988;-73
2022/11/03 00:31:43;;;;;;;12.67;7.00;;;;;;;4.81;80.70;101348.95;1719540;83;20992;-73
2022/11/03 00:34:11;;;;;;;12.07;7.97;;;;;;;4.74;80.48;101355.87;1719678;83;21047;-73
2022/11/03 00:36:42;;;;;;;13.33;7.63;;;;;;;4.68;80.49;101351.54;1719508;83;21946;-73
2022/11/03 00:39:10;;;;;;;13.43;7.00;;;;;;;4.65;80.66;101347.61;1719839;83;21016;-73
2022/11/03 00:41:38;;;;;;;13.03;7.43;;;;;;;4.66;80.88;101351.09;1719594;83;21039;-73
2022/11/03 00:44:09;;;;;;;13.00;8.17;;;;;;;4.58;80.48;101351.06;1719527;83;21553;-73
2022/11/03 00:46:35;;;;;;;12.95;7.53;;;;;;;4.50;80.44;101358.41;1719810;83;21524;-73
2022/11/03 00:49:05;;;;;;;13.43;7.40;;;;;;;4.45;80.56;101355.78;1719708;83;21894;-73
2022/11/03 00:51:33;;;;;;;15.73;7.30;;;;;;;4.41;80.64;101360.11;1719511;83;21052;-74
2022/11/03 00:54:03;;;;;;;17.57;7.50;;;;;;;4.38;81.16;101352.31;1719630;83;21031;-73
2022/11/03 00:56:37;;;;;;;12.90;7.25;;;;;;;4.36;80.95;101365.70;1719698;83;21485;-72
2022/11/03 00:59:06;;;;;;;14.73;7.43;;;;;;;4.34;81.15;101362.23;1718800;83;21510;-73
2022/11/03 01:01:42;;;;;;;13.33;7.10;;;;;;;4.35;81.31;101349.70;1719630;83;21919;-73
2022/11/03 01:06:58;;;;;;;12.03;6.47;;;;;;;4.34;81.36;101345.35;1719641;83;21011;-73
2022/11/03 01:09:39;;;;;;;;;;;;;;;4.31;81.42;101344.48;1722396;83;21090;-72
2022/11/03 01:12:18;;;;;;;12.57;6.63;;;;;;;4.28;81.53;101345.34;1719587;83;20520;-73
2022/11/03 01:14:52;;;;;;;13.33;7.10;;;;;;;4.24;81.59;101348.36;1719532;83;21140;-73
2022/11/03 01:17:23;;;;;;;11.60;6.93;;;;;;;4.20;81.57;101342.70;1719737;83;21493;-73
2022/11/03 01:19:51;;;;;;;11.17;6.53;;;;;;;4.20;81.46;101349.19;1719645;83;20984;-73
2022/11/03 01:22:20;;;;;;;12.67;7.20;;;;;;;4.18;81.67;101344.86;1719751;83;22124;-73
2022/11/03 01:24:47;;;;;;;17.27;6.77;;;;;;;4.18;81.86;101343.55;1724173;82;21014;-73
2022/11/03 01:27:17;;;;;;;14.27;7.10;;;;;;;4.20;82.17;101340.11;1697940;84;21107;-73
2022/11/03 01:29:45;;;;;;;13.88;6.80;;;;;;;4.22;82.18;101341.42;1673001;84;21032;-73
2022/11/03 01:32:12;;;;;;;11.90;7.30;;;;;;;4.17;81.87;101337.94;1697918;84;20989;-73
2022/11/03 01:34:39;;;;;;;13.90;7.43;;;;;;;4.21;82.81;101335.37;1697916;84;21036;-73
2022/11/03 01:37:07;;;;;;;11.30;6.47;;;;;;;4.29;82.75;101326.73;1698056;84;21443;-73
2022/11/03 01:39:34;;;;;;;12.73;7.03;;;;;;;4.25;82.31;101331.92;1698173;84;21119;-73
2022/11/03 01:42:02;;;;;;;12.97;6.43;;;;;;;4.26;82.97;101327.59;1698005;84;20992;-73
2022/11/03 01:44:36;;;;;;;12.83;5.70;;;;;;;4.30;82.88;101325.89;1698404;84;21542;-74
2022/11/03 01:47:34;;;;;;;14.07;7.67;;;;;;;4.28;82.36;101325.88;1698218;84;20992;-73
2022/11/03 01:50:17;;;;;;;12.60;7.27;;;;;;;4.29;83.19;101322.41;1698328;84;20996;-74
2022/11/03 01:52:49;;;;;;;15.53;6.57;;;;;;;4.36;83.59;101318.13;1698169;84;21138;-74
2022/11/03 01:55:21;;;;;;;14.40;7.17;;;;;;;4.33;83.02;101317.67;1698319;84;20981;-74
2022/11/03 01:57:55;;;;;;;11.57;6.57;;;;;;;4.34;83.43;101310.75;1698117;84;20989;-74
2022/11/03 02:00:23;;;;;;;12.33;6.90;;;;;;;4.38;84.11;101305.98;1697761;84;21255;-74
2022/11/03 02:02:50;;;;;;;11.27;5.93;;;;;;;4.44;84.00;101303.44;1698097;84;21081;-74
2022/11/03 02:05:20;;;;;;;11.93;6.93;;;;;;;4.39;83.37;101298.22;1698279;84;21932;-74
2022/11/03 02:08:03;;;;;;;11.33;5.53;;;;;;;4.35;83.18;101296.91;1698104;84;21009;-74
2022/11/03 02:10:31;;;;;;;8.60;5.10;;;;;;;4.32;82.85;101291.70;1697317;84;21997;-74
2022/11/03 02:12:58;;;;;;;13.60;5.87;;;;;;;4.22;82.39;101292.13;1698146;84;21422;-73
2022/11/03 02:15:25;;;;;;;8.37;5.13;;;;;;;4.12;82.17;101292.50;1698051;84;21009;-74
2022/11/03 02:17:54;;;;;;;9.53;5.83;;;;;;;4.09;82.49;101291.64;1698086;84;21165;-74
2022/11/03 02:20:30;;;;;;;12.87;5.63;;;;;;;4.05;82.62;101285.58;1697985;84;21493;-74
2022/11/03 02:23:12;;;;;;;11.77;5.07;;;;;;;4.00;82.22;101290.73;1698120;84;21012;-74
2022/11/03 02:25:49;;;;;;;13.23;5.27;;;;;;;3.93;82.05;101282.91;1698135;84;20997;-73
2022/11/03 02:28:20;;;;;;;8.00;4.83;;;;;;;3.83;81.87;101276.84;1698201;84;21510;-74
2022/11/03 02:31:08;;;;;;;9.07;5.20;;;;;;;3.78;82.03;101284.58;1698390;84;21150;-73
2022/11/03 02:33:55;;;;;;;10.20;4.73;;;;;;;3.72;81.99;101279.81;1697852;84;21534;-74
2022/11/03 02:36:45;;;;;;;11.40;5.00;;;;;;;3.69;82.29;101283.25;1698484;84;21503;-74
2022/11/03 02:39:33;;;;;;;6.62;4.10;;;;;;;3.62;82.05;101285.36;1681060;84;20993;-73
2022/11/03 02:42:04;;;;;;;11.40;4.80;;;;;;;3.55;82.12;101283.17;1710460;83;21015;-73
2022/11/03 02:44:33;;;;;;;9.48;4.35;;;;;;;3.52;82.25;101278.38;1710386;83;21851;-73
2022/11/03 02:47:05;;;;;;;8.20;4.17;;;;;;;3.49;82.40;101278.36;1710309;83;21026;-73
2022/11/03 02:49:45;;;;;;;11.43;4.57;;;;;;;3.45;82.34;101271.44;1710120;83;21010;-74
2022/11/03 02:52:39;;;;;;;8.37;4.73;;;;;;;3.41;82.45;101267.08;1729053;83;21559;-73
2022/11/03 02:55:24;;;;;;;10.23;4.77;;;;;;;3.37;82.37;101273.11;1728792;83;21089;-74
2022/11/03 02:58:17;;;;;;;8.00;4.03;;;;;;;3.30;82.36;101278.27;1728079;83;21118;-74
2022/11/03 03:01:05;;;;;;;10.20;4.47;;;;;;;3.29;82.71;101264.84;1728705;83;21019;-74
2022/11/03 03:03:39;;;;;;;16.30;7.50;;;;;;;3.22;82.58;101269.57;1728319;83;20983;-73
2022/11/03 03:06:14;;;;;;;11.27;5.50;;;;;;;3.26;83.60;101264.83;1728671;83;21575;-73
2022/11/03 03:08:45;;;;;;;13.83;5.53;;;;;;;3.38;84.21;101262.77;1728864;83;21516;-74
2022/11/03 03:11:13;;;;;;;10.10;4.93;;;;;;;3.40;83.62;101259.73;1728720;83;21373;-74
2022/11/03 03:13:42;;;;;;;9.73;5.10;;;;;;;3.38;83.26;101255.41;1728852;83;20995;-73
2022/11/03 03:16:18;;;;;;;10.73;5.40;;;;;;;3.34;83.07;101253.23;1728660;83;21516;-73
2022/11/03 03:19:05;;;;;;;9.37;5.73;;;;;;;3.29;82.96;101251.89;1728933;83;21472;-73
2022/11/03 03:21:39;;;;;;;12.33;5.77;;;;;;;3.29;83.47;101249.73;1728282;83;21052;-73
2022/11/03 03:24:15;;;;;;;11.87;6.43;;;;;;;3.32;83.27;101252.34;1728163;83;21106;-91
2022/11/03 03:26:48;;;;;;;14.27;6.33;;;;;;;3.29;83.11;101249.73;1728674;83;21414;-73
2022/11/03 03:29:23;;;;;;;12.83;6.70;;;;;;;3.31;83.65;101249.33;1728683;83;21003;-73
2022/11/03 03:32:00;;;;;;;17.47;7.53;;;;;;;3.31;83.44;101249.33;1728754;83;21024;-73
2022/11/03 03:34:29;;;;;;;15.07;6.80;;;;;;;3.35;84.49;101247.17;1728848;83;21023;-73
2022/11/03 03:36:59;;;;;;;11.87;6.70;;;;;;;3.41;84.13;101246.34;1728624;83;21089;-73
2022/11/03 03:39:31;;;;;;;13.73;6.30;;;;;;;3.38;83.90;101241.15;1728560;82;20983;-73
2022/11/03 03:42:00;;;;;;;11.80;6.17;;;;;;;3.37;83.89;101238.98;1728798;83;20959;-73
2022/11/03 03:44:29;;;;;;;11.13;6.23;;;;;;;3.33;83.57;101238.55;1728906;83;20995;-73
2022/11/03 03:47:07;;;;;;;12.77;6.57;;;;;;;3.31;83.70;101238.96;1729016;83;22212;-73
2022/11/03 03:49:34;;;;;;;10.87;7.03;;;;;;;3.29;83.64;101238.08;1725067;83;22024;-73
2022/11/03 03:52:02;;;;;;;11.93;6.77;;;;;;;3.35;84.47;101239.00;1728786;82;21023;-73
2022/11/03 03:54:29;;;;;;;14.10;6.87;;;;;;;3.34;84.01;101234.66;1728731;82;21452;-74
2022/11/03 03:57:05;;;;;;;11.10;6.53;;;;;;;3.38;84.58;101230.78;1729002;83;20877;-73
2022/11/03 03:59:32;;;;;;;13.80;6.37;;;;;;;3.43;84.36;101224.77;1728627;83;21488;-73
2022/11/03 04:02:00;;;;;;;13.57;6.00;;;;;;;3.41;84.17;101223.92;1728788;82;22216;-73
2022/11/03 04:04:27;;;;;;;12.60;6.30;;;;;;;3.39;84.24;101220.88;1728547;82;21011;-73
2022/11/03 04:07:45;;;;;;;10.40;6.47;;;;;;;3.46;85.17;101222.19;1728954;83;21451;-73
2022/11/03 04:09:23;;;;;;;12.60;7.07;;;;;;;3.52;84.97;101218.36;1724745;83;21011;-73
2022/11/03 04:22:56;;;;;;;10.87;6.37;;;;;;;3.52;84.91;101210.98;1706659;83;21007;-73
2022/11/03 04:25:24;;;;;;;12.80;6.53;;;;;;;3.68;85.98;101214.52;1728527;83;21565;-73
2022/11/03 04:27:51;;;;;;;14.10;6.87;;;;;;;3.74;85.71;101214.14;1728593;82;22146;-73
2022/11/03 04:30:20;;;;;;;11.80;6.53;;;;;;;3.83;86.03;101222.38;1728659;82;21031;-73
2022/11/03 04:32:50;;;;;;;10.60;6.23;;;;;;;3.94;86.24;101209.45;1728699;83;21065;-74
2022/11/03 04:35:27;;;;;;;12.25;6.33;;;;;;;3.99;85.50;101212.90;1728855;83;21026;-74
2022/11/03 04:38:00;;;;;;;9.47;5.30;;;;;;;3.96;84.91;101209.89;1728649;83;21000;-73
2022/11/03 04:40:28;;;;;;;12.40;6.43;;;;;;;3.87;84.01;101208.55;1726928;83;21142;-85
2022/11/03 04:42:56;;;;;;;9.93;5.77;;;;;;;3.83;84.42;101202.07;1728555;82;21512;-73
2022/11/03 04:45:32;;;;;;;8.23;5.53;;;;;;;3.86;84.60;101202.08;1728854;83;21023;-73
2022/11/03 04:48:03;;;;;;;12.70;6.10;;;;;;;3.77;83.68;101211.55;1728642;83;20900;-73
2022/11/03 04:50:30;;;;;;;12.10;5.60;;;;;;;3.73;84.40;101207.20;1728645;83;20984;-73
2022/11/03 04:52:58;;;;;;;10.30;4.80;;;;;;;3.71;84.09;101208.05;1728717;83;21130;-73
2022/11/03 04:55:26;;;;;;;13.37;5.47;;;;;;;3.63;83.47;101205.85;1728798;83;21015;-73
2022/11/03 04:58:04;;;;;;;9.57;5.60;;;;;;;3.56;83.57;101202.38;1728660;82;21468;-85
2022/11/03 05:00:31;;;;;;;13.63;6.17;;;;;;;3.53;83.77;101199.78;1702634;83;21023;-73
2022/11/03 05:02:58;;;;;;;11.53;5.07;;;;;;;3.55;84.42;101202.81;1728705;83;20979;-73
2022/11/03 05:05:26;;;;;;;10.93;5.10;;;;;;;3.60;84.83;101194.17;1728600;83;21100;-73
2022/11/03 05:07:56;;;;;;;10.20;5.00;;;;;;;3.62;84.52;101195.06;1728548;83;21019;-74
2022/11/03 05:10:28;;;;;;;9.13;5.60;;;;;;;3.59;84.35;101192.02;1728809;83;21015;-73
2022/11/03 05:12:56;;;;;;;10.97;5.60;;;;;;;3.63;84.85;101185.11;1728615;83;21027;-73
2022/11/03 05:15:36;;;;;;;11.77;6.53;;;;;;;3.71;85.51;101186.88;1728694;82;21030;-73
2022/11/03 05:18:26;;;;;;;10.60;6.22;;;;;;;3.83;86.16;101183.91;1729110;83;21920;-73
2022/11/03 05:21:04;;;;;;;11.17;5.90;;;;;;;3.85;85.79;101180.88;1728795;83;20979;-74
2022/11/03 05:23:41;;;;;;;11.73;5.57;;;;;;;3.82;84.83;101186.91;1710182;83;21023;-73
2022/11/03 05:26:19;;;;;;;11.97;6.17;;;;;;;3.77;85.02;101183.47;1724189;82;20998;-73
2022/11/03 05:28:51;;;;;;;13.03;5.53;;;;;;;3.78;84.82;101179.56;1719651;83;20983;-73
2022/11/03 05:31:31;;;;;;;10.47;5.50;;;;;;;3.71;84.27;101180.39;1719668;83;22118;-73
2022/11/03 05:34:05;;;;;;;8.33;5.87;;;;;;;3.64;84.25;101177.36;1719771;83;21468;-72
2022/11/03 05:36:33;;;;;;;11.77;6.20;;;;;;;3.62;84.52;101175.18;1718496;83;21019;-72
2022/11/03 05:39:17;;;;;;;11.10;5.80;;;;;;;3.56;83.98;101177.32;1689300;85;21018;-72
2022/11/03 05:41:44;;;;;;;9.87;6.07;;;;;;;3.46;83.77;101174.23;1636065;87;21572;-72
2022/11/03 05:44:29;;;;;;;12.60;6.33;;;;;;;3.40;83.97;101176.81;1645084;87;21973;-72
2022/11/03 05:46:57;;;;;;;11.67;5.97;;;;;;;3.37;84.26;101179.83;1645020;87;21082;-73
2022/11/03 05:49:25;;;;;;;11.53;6.17;;;;;;;3.35;83.79;101181.09;1636320;87;21047;-74
2022/11/03 05:51:51;;;;;;;12.43;6.00;;;;;;;3.32;84.20;101178.50;1644880;87;21109;-74
2022/11/03 05:54:26;;;;;;;10.63;6.70;;;;;;;3.30;84.15;101184.12;1664810;86;21641;-73
2022/11/03 05:56:55;;;;;;;12.03;6.17;;;;;;;3.28;84.30;101181.95;1664251;86;21116;-73
2022/11/03 05:59:28;;;;;;;12.43;6.13;;;;;;;3.23;84.07;101177.16;1664575;86;21605;-73
2022/11/03 06:01:59;;;;;;;12.07;6.07;;;;;;;3.19;84.18;101185.76;1664460;86;21569;-73
2022/11/03 06:04:36;;;;;;;11.20;6.30;;;;;;;3.19;84.54;101182.77;1641232;86;21095;-73
2022/11/03 06:07:10;;;;;;;9.67;6.40;;;;;;;3.20;84.43;101180.59;1631855;87;21648;-77
2022/11/03 06:09:37;;;;;;;11.47;6.27;;;;;;;3.18;84.49;101177.13;1634724;86;21592;-44
2022/11/03 06:12:09;;;;;;;9.83;5.67;;;;;;;3.17;84.52;101181.88;1636570;87;21193;-43
2022/11/03 06:14:36;;;;;;;9.40;5.97;;;;;;;3.18;84.67;101179.72;1586852;89;21064;-79
2022/11/03 06:17:13;;;;;;;9.30;5.27;;;;;;;3.20;85.00;101175.42;1626758;83;21089;-74
2022/11/03 06:19:50;;;;;;;12.73;6.20;;;;;;;3.26;85.53;101174.15;1697702;83;21754;-74
2022/11/03 06:22:28;;;;;;;10.83;6.10;;;;;;;3.34;85.51;101181.53;1722533;83;21183;-73
2022/11/03 06:25:00;;;;;;;11.43;6.70;;;;;;;3.42;85.89;101182.02;1701872;84;21023;-73
2022/11/03 06:27:31;;;;;;;12.50;7.10;;;;;;;3.51;86.33;101178.16;1712861;82;21020;-74
2022/11/03 06:30:03;;;;;;;11.60;6.70;;;;;;;3.67;87.01;101181.69;1744274;82;27085;-74
2022/11/03 06:32:32;;;;;;;8.80;6.30;;;;;;;3.74;87.00;101185.61;1741248;82;21028;-74
2022/11/03 06:34:59;;;;;;;11.63;6.20;;;;;;;3.79;86.49;101189.06;1720059;82;21265;-71
2022/11/03 06:37:31;;;;;;;12.03;6.37;;;;;;;3.82;86.52;101185.62;1722258;82;22543;-75
2022/11/03 06:40:16;;;;;;;11.57;6.70;;;;;;;3.85;86.12;101182.17;1744404;82;21043;-82
2022/11/03 06:42:43;;;;;;;9.33;6.30;;;;;;;3.86;86.21;101182.19;1732345;82;21058;-78
2022/11/03 06:45:21;;;;;;;10.33;6.47;;;;;;;3.92;86.38;101186.52;1731957;82;21007;-81
2022/11/03 06:47:49;;;;;;;11.37;6.63;;;;;;;3.97;86.43;101193.45;1744039;82;21716;-77
2022/11/03 06:50:33;;;;;;;10.50;5.77;;;;;;;4.03;86.53;101193.91;1744443;82;21008;-75
2022/11/03 06:53:03;;;;;;;10.07;5.90;;;;;;;4.12;86.91;101186.56;1732154;82;21008;-74
2022/11/03 06:55:32;;;;;;;8.50;6.22;;;;;;;4.24;87.05;101191.80;1717062;82;21071;-80
2022/11/03 06:58:22;;;;;;;10.00;6.13;;;;;;;4.32;87.16;101189.19;1729013;81;21081;-74
2022/11/03 07:00:49;;;;;;;6.97;5.25;;;;;;;4.39;87.21;101186.61;1717109;82;21183;-71
2022/11/03 07:03:36;;;;;;;9.93;6.37;;;;;;;4.51;87.46;101188.34;1743756;82;21500;-75
2022/11/03 07:06:14;;;;;;;11.77;6.00;;;;;;;4.59;87.62;101182.72;1744581;82;21063;-75
2022/11/03 07:08:51;;;;;;;10.50;5.83;;;;;;;4.74;87.80;101188.77;1728530;81;21529;-76
2022/11/03 07:11:22;;;;;;;10.43;5.83;;;;;;;4.84;87.84;101188.77;1719393;81;22143;-74
2022/11/03 07:13:59;;;;;;;9.93;6.03;;;;;;;4.99;88.11;101176.63;1714775;82;21145;-76
2022/11/03 07:16:40;;;;;;;9.90;5.50;;;;;;;5.08;87.82;101172.29;1731300;82;20999;-76
2022/11/03 07:19:21;;;;;;;12.00;5.67;;;;;;;5.20;88.05;101164.89;1744686;82;21027;-77
2022/11/03 07:21:52;;;;;;;9.87;6.13;;;;;;;5.35;88.25;101158.80;1742061;82;21011;-79
2022/11/03 07:24:36;;;;;;;9.77;5.80;;;;;;;5.44;88.05;101163.95;1739891;81;21770;-77
2022/11/03 07:27:31;;;;;;;10.07;5.80;;;;;;;5.54;88.09;101153.95;1715639;82;21906;-76
2022/11/03 07:30:02;;;;;;;11.40;5.70;;;;;;;5.68;88.45;101148.70;1715945;82;21036;-77
2022/11/03 07:32:32;;;;;;;11.17;5.07;;;;;;;5.85;88.61;101151.61;1718684;81;21375;-77
2022/11/03 07:35:23;;;;;;;6.58;4.80;;;;;;;5.99;88.73;101144.21;1718817;81;21429;-76
2022/11/03 07:37:51;;;;;;;8.30;5.10;;;;;;;6.12;88.58;101138.91;1717416;82;21631;-76
2022/11/03 07:40:22;;;;;;;9.37;5.10;;;;;;;6.18;88.30;101138.45;1707931;81;21077;-75
2022/11/03 07:42:51;;;;;;;10.07;4.90;;;;;;;6.27;88.39;101132.30;1731555;82;21379;-83
2022/11/03 07:45:41;;;;;;;8.83;4.80;;;;;;;6.36;88.35;101137.44;1718471;82;21012;-76
2022/11/03 07:48:29;;;;;;;7.80;4.62;;;;;;;6.45;88.45;101132.14;1703022;82;20924;-73
2022/11/03 07:50:59;;;;;;;9.07;4.70;;;;;;;6.56;88.25;101125.98;1744025;82;22183;-74
2022/11/03 07:53:37;;;;;;;10.60;4.65;;;;;;;6.69;88.39;101115.88;1732153;82;21941;-74
2022/11/03 07:56:26;;;;;;;12.93;4.80;;;;;;;6.84;88.45;101107.90;1731339;82;21340;-74
2022/11/03 07:59:01;;;;;;;10.10;4.83;;;;;;;6.96;88.24;101096.50;1731902;82;21038;-74
2022/11/03 08:01:36;;;;;;;11.00;5.23;;;;;;;7.09;88.30;101098.52;1744617;82;21023;-74
2022/11/03 08:04:19;;;;;;;9.00;5.07;;;;;;;7.21;87.98;101094.92;1744458;82;21020;-74
2022/11/03 08:06:47;;;;;;;8.13;4.80;;;;;;;7.34;87.84;101093.86;1732102;82;21106;-74
2022/11/03 08:09:14;;;;;;;9.40;4.53;;;;;;;7.49;87.80;101085.00;1744379;82;21583;-74
2022/11/03 08:11:40;;;;;;;7.30;4.40;;;;;;;7.65;88.00;101083.91;1731986;82;21042;-74
2022/11/03 08:14:08;;;;;;;11.23;4.47;;;;;;;;;;1731805;82;21472;-74
2022/11/03 08:16:34;;;;;;;10.33;5.20;;;;;;;7.99;87.60;101080.80;1732081;82;21030;-74
2022/11/03 08:19:01;;;;;;;9.17;5.53;;;;;;;8.16;87.71;101068.33;1731643;82;21093;-75
2022/11/03 08:21:28;;;;;;;10.80;5.27;;;;;;;8.38;87.55;101066.67;1705815;82;21022;-75
2022/11/03 08:23:55;;;;;;;13.47;5.47;;;;;;;8.56;87.42;101053.29;1744367;82;21015;-75
2022/11/03 08:26:22;;;;;;;9.87;4.80;;;;;;;8.75;87.20;101049.89;1730143;82;21767;-75
2022/11/03 08:28:49;;;;;;;11.23;5.03;;;;;;;8.91;87.07;101040.01;1679339;84;21053;-75
2022/11/03 08:31:16;;;;;;;9.33;5.00;;;;;;;9.07;86.90;101042.73;1702472;84;21543;-75
2022/11/03 08:33:44;;;;;;;8.70;4.30;;;;;;;9.25;86.81;101034.08;1702661;84;21304;-74
2022/11/03 08:36:11;;;;;;;10.40;4.47;;;;;;;9.41;86.56;101034.16;1702371;84;21041;-74
2022/11/03 08:38:38;;;;;;;9.23;4.37;;;;;;;9.55;86.29;101027.31;1702498;84;21526;-75
2022/11/03 08:41:05;;;;;;;9.07;4.40;;;;;;;9.70;86.18;101025.66;1702442;84;21045;-75
2022/11/03 08:43:32;;;;;;;8.67;4.00;;;;;;;9.82;85.98;101022.73;1702663;84;21089;-75
2022/11/03 08:45:59;;;;;;;10.17;4.17;;;;;;;9.97;85.57;101021.50;1702397;84;21524;-74
2022/11/03 08:48:26;;;;;;;7.90;3.60;;;;;;;10.11;85.49;101019.84;1702695;84;21037;-75
2022/11/03 08:50:54;;;;;;;5.80;4.00;;;;;;;10.25;85.34;101019.07;1702406;84;21045;-79
2022/11/03 08:53:24;;;;;;;7.50;3.47;;;;;;;10.37;84.79;101015.75;1702656;84;22040;-74
2022/11/03 08:55:54;;;;;;;7.10;3.85;;;;;;;10.45;84.59;101010.72;1702476;83;21134;-77
2022/11/03 08:58:22;;;;;;;7.08;3.62;;;;;;;10.58;84.33;101009.05;1702652;84;21097;-75
2022/11/03 09:00:49;;;;;;;8.88;4.33;;;;;;;10.68;84.31;101001.36;1702365;84;21054;-80
2022/11/03 09:03:16;;;;;;;9.33;3.98;;;;;;;10.83;84.11;101000.05;1702544;84;21487;-76
2022/11/03 09:05:43;;;;;;;7.03;3.50;;;;;;;10.99;83.88;100989.99;1702457;84;21070;-76
2022/11/03 09:08:11;;;;;;;11.75;3.55;;;;;;;11.11;83.51;100990.92;1702577;84;21113;-76
2022/11/03 09:10:38;;;;;;;9.60;3.37;;;;;;;11.21;83.25;100987.59;1702255;84;21093;-76
2022/11/03 09:13:05;;;;;;;10.20;3.20;;;;;;;11.31;83.05;100984.64;1702696;84;21125;-79
2022/11/03 09:15:32;;;;;;;8.13;3.33;;;;;;;11.45;82.94;100988.16;1702481;84;20947;-76
2022/11/03 09:17:59;;;;;;;7.75;3.50;;;;;;;11.55;82.38;100976.44;1702574;84;22101;-85
2022/11/03 09:20:27;;;;;;;11.65;3.22;;;;;;;11.70;82.14;100967.69;1702486;84;21112;-76
2022/11/03 09:22:54;;;;;;;6.58;2.80;;;;;;;11.89;81.86;100961.38;1702606;84;21094;-77
2022/11/03 09:25:21;;;;;;;5.30;2.25;;;;;;;12.11;81.72;100958.45;1702437;84;21528;-76
2022/11/03 09:27:47;;;;;;;7.12;2.15;;;;;;;12.37;81.29;100957.98;1730350;81;21031;-77
2022/11/03 09:30:16;;;;;;;5.58;2.10;;;;;;;12.66;80.77;100949.03;1696925;84;21394;-77
2022/11/03 09:32:45;;;;;;;4.20;2.10;;;;;;;12.93;80.32;100940.56;1696852;84;21421;-76
2022/11/03 09:35:13;;;;;;;6.62;2.10;;;;;;;13.14;79.22;100945.48;1696782;84;21004;-76
2022/11/03 09:37:40;;;;;;;6.20;2.05;;;;;;;13.28;78.21;100943.19;1696960;84;20995;-76
2022/11/03 09:40:10;;;;;;;5.30;2.05;;;;;;;13.51;77.83;100932.19;1678692;84;21526;-77
2022/11/03 09:42:38;;;;;;;10.28;2.33;;;;;;;13.74;77.53;100928.59;1696958;84;21308;-76
2022/11/03 09:45:08;;;;;;;5.17;2.33;;;;;;;13.87;76.67;100919.26;1696798;84;22192;-76
2022/11/03 09:47:42;;;;;;;7.70;2.25;;;;;;;13.99;75.78;100921.83;1699584;84;26741;-76
2022/11/03 09:50:19;;;;;;;6.62;2.35;;;;;;;14.16;75.09;100913.19;1699462;84;21025;-77
2022/11/03 09:52:48;;;;;;;10.03;2.55;;;;;;;14.37;74.81;100914.88;1699546;83;21031;-77
2022/11/03 09:55:25;;;;;;;9.00;2.75;;;;;;;14.67;74.75;100912.67;1699696;84;21612;-77
2022/11/03 09:57:56;;;;;;;6.20;2.75;;;;;;;14.95;74.00;100908.28;1699025;83;21130;-77
2022/11/03 10:00:25;;;;;;;6.40;2.85;;;;;;;15.20;73.09;100902.31;1699680;83;21501;-77
2022/11/03 10:02:52;;;;;;;5.87;2.20;;;;;;;15.36;72.28;100892.24;1699448;83;21019;-77
2022/11/03 10:05:26;;;;;;;6.22;2.83;;;;;;;15.48;71.55;100898.70;1700071;84;21467;-77
2022/11/03 10:08:01;;;;;;;12.20;2.55;;;;;;;15.60;70.79;100891.50;1699377;83;21062;-77
2022/11/03 10:10:30;;;;;;;6.78;2.40;;;;;;;15.73;70.80;100889.58;1699854;83;21896;-77
2022/11/03 10:13:00;;;;;;;6.30;2.60;;;;;;;15.93;70.42;100883.27;1699508;83;21541;-77
2022/11/03 10:15:28;;;;;;;5.95;2.30;;;;;;;16.10;69.77;100877.10;1699828;83;21023;-77
2022/11/03 10:17:56;;;;;;;8.53;2.50;;;;;;;16.26;69.34;100878.01;1699696;83;21477;-77
2022/11/03 10:20:23;;;;;;;6.67;2.50;;;;;;;16.34;68.52;100873.64;1699805;84;21062;-78
2022/11/03 10:22:54;;;;;;;5.40;2.15;;;;;;;16.46;67.76;100873.84;1699698;83;21792;-76
2022/11/03 10:25:40;;;;;;;7.40;2.50;;;;;;;16.55;67.46;100873.81;1699803;83;21043;-77
2022/11/03 10:28:21;;;;;;;8.28;2.50;;;;;;;16.76;67.48;100869.11;1722244;82;21098;-77
2022/11/03 10:30:51;;;;;;;7.78;2.77;;;;;;;16.92;66.65;100856.77;1734631;82;21003;-76
2022/11/03 10:33:36;;;;;;;9.68;2.85;;;;;;;17.03;65.78;100866.76;1734657;82;21541;-76
2022/11/03 10:36:18;;;;;;;6.95;2.87;;;;;;;17.11;65.24;100844.66;1734455;82;21139;-77
2022/11/03 10:38:49;;;;;;;12.07;2.85;;;;;;;17.23;64.90;100840.92;1746656;82;21564;-77
2022/11/03 10:41:18;;;;;;;5.47;2.77;;;;;;;17.34;64.46;100841.16;1747226;82;21015;-76
2022/11/03 10:43:56;;;;;;;6.75;2.70;;;;;;;17.38;63.90;100842.70;1734472;82;21520;-77
2022/11/03 10:46:23;;;;;;;7.80;2.90;;;;;;;17.45;63.39;100840.05;1717458;82;21507;-77
2022/11/03 10:49:16;;;;;;;5.65;2.85;;;;;;;17.47;63.10;100846.13;1734640;82;21089;-78
2022/11/03 10:51:49;;;;;;;6.58;2.75;;;;;;;17.66;62.99;100845.90;1747082;82;21011;-77
2022/11/03 10:54:20;;;;;;;9.23;2.87;;;;;;;17.72;62.26;100835.40;1722835;82;20980;-75
2022/11/03 10:56:49;;;;;;;7.05;2.58;;;;;;;17.76;61.55;100839.55;1746581;82;20980;-76
2022/11/03 10:59:23;;;;;;;7.08;2.60;;;;;;;17.82;61.26;100835.27;1747257;82;21402;-75
2022/11/03 11:01:50;;;;;;;7.60;2.98;;;;;;;17.96;60.92;100835.76;1746412;82;21068;-78
2022/11/03 11:04:19;;;;;;;9.50;2.95;;;;;;;18.16;60.16;100825.24;1734287;81;21564;-77
2022/11/03 11:06:47;;;;;;;7.60;2.50;;;;;;;18.48;59.60;100824.09;1762438;81;21018;-77
2022/11/03 11:09:26;;;;;;;5.78;2.60;;;;;;;18.91;59.70;100818.69;1765190;81;20980;-76
2022/11/03 11:12:16;;;;;;;6.17;2.45;;;;;;;19.26;58.83;100807.55;1765507;81;21481;-76
2022/11/03 11:15:05;;;;;;;;;;;;;;;19.52;58.65;100810.25;1767970;80;21074;-76
2022/11/03 11:17:48;;;;;;;6.45;2.40;;;;;;;19.68;56.56;100799.45;1755140;80;20142;-76
2022/11/03 11:20:27;;;;;;;6.37;2.60;;;;;;;19.85;56.87;100801.80;1728653;81;21007;-78
2022/11/03 11:22:54;;;;;;;5.03;2.17;;;;;;;19.96;55.73;100790.41;1728592;83;20984;-77
2022/11/03 11:25:25;;;;;;;6.08;2.58;;;;;;;20.04;55.99;100787.58;1732924;81;21274;-75
2022/11/03 11:27:55;;;;;;;6.03;2.17;;;;;;;20.08;55.45;100786.87;1762812;79;21461;-74
2022/11/03 11:30:37;;;;;;;7.95;2.95;;;;;;;20.03;55.12;100781.02;1707362;83;21559;-76
2022/11/03 11:33:23;;;;;;;5.10;2.30;;;;;;;20.04;54.66;100779.59;1708926;83;21020;-74
2022/11/03 11:35:55;;;;;;;8.43;2.92;;;;;;;20.10;54.62;100776.13;1705890;83;21428;-74
2022/11/03 11:38:48;;;;;;;7.00;2.62;;;;;;;20.11;54.49;100769.35;1710454;83;21023;-75
2022/11/03 11:41:15;;;;;;;6.78;2.10;;;;;;;20.19;54.25;100761.67;1690082;84;21137;-80
2022/11/03 11:43:42;;;;;;;6.47;2.42;;;;;;;20.13;54.15;100760.79;1691319;84;20969;-77
2022/11/03 11:46:41;;;;;;;6.67;2.20;;;;;;;20.15;53.74;100754.88;1691300;84;21012;-75
2022/11/03 11:49:13;;;;;;;5.87;2.25;;;;;;;20.01;53.45;100751.03;1691551;84;21043;-75
2022/11/03 11:51:41;;;;;;;3.92;1.98;;;;;;;19.80;53.44;100741.41;1691401;84;20985;-75
2022/11/03 11:54:16;;;;;;;5.28;2.00;;;;;;;19.81;53.39;100734.67;1691310;84;21098;-76
2022/11/03 11:56:47;;;;;;;5.83;2.27;;;;;;;19.80;53.13;100733.43;1691436;84;20932;-75
2022/11/03 11:59:24;;;;;;;6.22;1.98;;;;;;;19.76;52.64;100730.59;1691582;84;20961;-75
2022/11/03 12:01:55;;;;;;;5.35;1.92;;;;;;;19.71;52.25;100728.28;1691278;84;21604;-75
2022/11/03 12:04:29;;;;;;;4.10;1.90;;;;;;;19.75;52.15;100728.91;1691589;84;21004;-75
2022/11/03 12:06:56;;;;;;;5.40;1.75;;;;;;;19.86;51.78;100718.36;1691465;84;21470;-75